Georgetown, KY (40324)

9:03 AM EST on February 14, 2016 (GMT -0500)
Pleasant Valley | | Change Station
CLOSE
Current Station
Personal Weather Station
Location: Georgetown, KY
Elevation: 154 ft
Nearby Weather Stations
Active Advisory: Winter Weather Advisory

Elev 154 ft 38.25 °N, 84.52 °W | Updated 6 minutes ago

Overcast
Overcast
16.5 °F
Feels Like 11 °F
N
3.7
Wind Variable Wind from ESE

Today
High -- | Low -- °F
--% Chance of Precip.
Yesterday
High -- | Low -- °F
Precip. -- in
Pressure 30.45 in
Visibility 10.0 miles
Clouds Overcast 4200 ft
Windchill 11 °F
Dew Point 7 °F
Humidity 65%
Rainfall 0.00 in
Snow Depth Not available.
7:30 AM 6:15 PM
Waxing Crescent, 42% visible
METAR KLEX 141354Z 09009KT 10SM OVC042 M08/M16 A3040 RMK AO2 SLP310 T10831161 $
Pressure 30.45 in
Visibility 10.0 miles
Clouds Overcast 4200 ft
Windchill 11 °F
Dew Point 7 °F
Humidity 65%
Rainfall 0.00 in
Snow Depth Not available.
7:30 AM 6:15 PM
Waxing Crescent, 42% visible
METAR KLEX 141354Z 09009KT 10SM OVC042 M08/M16 A3040 RMK AO2 SLP310 T10831161 $

10-Day Weather Forecast

Almanac

Astronomy

Feb. 14, 2016 Rise Set
Actual Time
Civil Twilight
Nautical Twilight
Astronomical Twilight
Moon
Length of Visible Light
Length of Day
Tomorrow will be .
, % of the Moon is Illuminated

Today's Extremes

State Highs State Lows

Community

WunderPhotos

Upload Photos

1,892,797 photos uploaded!

WunderBlog® & News

Nearby

Air Quality

  Air Quality AQ Index Pollutant
Not available.

Snow Depth

Station Depth Elevation

Earthquake Activity

City Distance Mag. Time & Date
Minimum magnitude displayed is 2.5.

Coastal Water Temperatures

Place Temperature

Stations

Nearby Weather Stations

Station Location Temp. Windchill Dew Point Humidity Wind Precip. Elev Updated Type
                   

Watches & Warnings

Winter Weather Advisory
Issued: 4:11 AM EST Feb. 14, 2016 – National Weather Service

... Winter Weather Advisory now in effect from 10 am this morning
to 10 am EST Monday...

* timing... light snow will begin Sunday morning... becoming
heavier Sunday afternoon and evening.

* Main impact... 2 to 4 inches of snow will be possible by late
Sunday night.

* Other impacts... there is a chance of a brief period of
freezing drizzle late Sunday night before transitioning to
drizzle or rain Monday morning.

Precautionary/preparedness actions...

A Winter Weather Advisory for snow means that periods of snow
will cause primarily travel difficulties. Be prepared for snow
covered roads and limited visibilities... and use caution while
driving.



Mj